Terminal Aerodrome Forecast
Issued by NWS Kansas City/Pleasant Hill, MO

Home | Current Version | Previous Version | Text Only | Print | Product List | Glossary On
Versions: 1 2 3 4 5 6 7 8 9 10 11 12 13
996
FTUS43 KEAX 050520
TAFMCI
TAF
KMCI 050520Z 0506/0606 29009KT P6SM FEW030
     FM051300 14007KT P6SM BKN150
     FM060300 27007KT P6SM BKN050=

USA.gov is the U.S. government's official web portal to all federal, state and local government web resources and services.